Azwell, Washington
Current Conditions -  °F | °C
As of 7:53 PM on Friday 31 Oct 2014 (Local Time) from KOMK Reporting Station
Overcast Overcast  
Wind Chill: 51°   Ceiling: 7000
Heat Index: 51°   Visibility: 10mi
Dew Point: 49°   Wind: 3mph
Humidity: 92%   Direction: 180°S
Pressure: 29.76"   Gusts: NA
Location:  48.0966°N, 119.955°W
Report Text: KOMK 010253Z AUTO 18003KT 10SM SCT026 OVC070 11/09 A2976 RMK AO2 SLP082 T01060094 53008
Loading
Personal Weather Stations






























Interactive Weather Map
Tropical Storm Tracking
New forecast layout! Learn more

10-Day Weather Forecast

Advertisements
Track Severe Weather on mobile